sensor_id;sensor_type;location;lat;lon;timestamp;P1;durP1;ratioP1;P2;durP2;ratioP2
63193;SDS011;49289;51.670;5.624;2022-08-11T00:01:27;4.00;;;2.40;;
63193;SDS011;49289;51.670;5.624;2022-08-11T00:03:13;4.20;;;2.60;;
63193;SDS011;49289;51.670;5.624;2022-08-11T00:05:02;4.90;;;2.40;;
63193;SDS011;49289;51.670;5.624;2022-08-11T00:06:53;2.50;;;2.30;;
63193;SDS011;49289;51.670;5.624;2022-08-11T00:08:41;6.00;;;2.50;;
63193;SDS011;49289;51.670;5.624;2022-08-11T00:10:29;4.20;;;2.40;;
63193;SDS011;49289;51.670;5.624;2022-08-11T00:12:17;4.50;;;2.40;;
63193;SDS011;49289;51.670;5.624;2022-08-11T00:14:04;2.80;;;2.30;;
63193;SDS011;49289;51.670;5.624;2022-08-11T00:15:52;4.00;;;2.40;;
63193;SDS011;49289;51.670;5.624;2022-08-11T00:17:40;2.60;;;2.20;;
63193;SDS011;49289;51.670;5.624;2022-08-11T00:19:29;5.30;;;2.60;;
63193;SDS011;49289;51.670;5.624;2022-08-11T00:21:16;5.60;;;2.50;;
63193;SDS011;49289;51.670;5.624;2022-08-11T00:23:06;2.40;;;2.20;;
63193;SDS011;49289;51.670;5.624;2022-08-11T00:24:54;6.60;;;2.40;;
63193;SDS011;49289;51.670;5.624;2022-08-11T00:26:42;3.20;;;2.20;;
63193;SDS011;49289;51.670;5.624;2022-08-11T00:28:33;3.50;;;2.20;;
63193;SDS011;49289;51.670;5.624;2022-08-11T00:30:21;5.20;;;2.50;;
63193;SDS011;49289;51.670;5.624;2022-08-11T00:32:11;6.40;;;2.50;;
63193;SDS011;49289;51.670;5.624;2022-08-11T00:33:57;3.30;;;2.30;;
63193;SDS011;49289;51.670;5.624;2022-08-11T00:35:44;2.70;;;2.10;;
63193;SDS011;49289;51.670;5.624;2022-08-11T00:37:31;4.20;;;2.40;;
63193;SDS011;49289;51.670;5.624;2022-08-11T00:39:19;3.30;;;2.20;;
63193;SDS011;49289;51.670;5.624;2022-08-11T00:41:07;3.50;;;2.40;;
63193;SDS011;49289;51.670;5.624;2022-08-11T00:43:07;3.20;;;2.40;;
63193;SDS011;49289;51.670;5.624;2022-08-11T00:45:00;4.80;;;2.50;;
63193;SDS011;49289;51.670;5.624;2022-08-11T00:46:52;3.30;;;2.20;;
63193;SDS011;49289;51.670;5.624;2022-08-11T00:48:44;4.70;;;2.60;;
63193;SDS011;49289;51.670;5.624;2022-08-11T00:50:35;3.20;;;2.40;;
63193;SDS011;49289;51.670;5.624;2022-08-11T00:52:26;5.20;;;2.20;;
63193;SDS011;49289;51.670;5.624;2022-08-11T00:54:17;4.80;;;2.30;;
63193;SDS011;49289;51.670;5.624;2022-08-11T00:56:28;4.80;;;2.50;;
63193;SDS011;49289;51.670;5.624;2022-08-11T00:58:39;3.90;;;2.40;;
63193;SDS011;49289;51.670;5.624;2022-08-11T01:00:31;6.20;;;2.60;;
63193;SDS011;49289;51.670;5.624;2022-08-11T01:02:23;3.60;;;2.40;;
63193;SDS011;49289;51.670;5.624;2022-08-11T01:06:27;2.40;;;2.20;;
63193;SDS011;49289;51.670;5.624;2022-08-11T01:08:22;3.30;;;2.50;;
63193;SDS011;49289;51.670;5.624;2022-08-11T01:10:38;4.60;;;2.30;;
63193;SDS011;49289;51.670;5.624;2022-08-11T01:12:35;3.20;;;2.20;;
63193;SDS011;49289;51.670;5.624;2022-08-11T01:14:39;4.40;;;2.30;;
63193;SDS011;49289;51.670;5.624;2022-08-11T01:16:46;3.30;;;2.40;;
63193;SDS011;49289;51.670;5.624;2022-08-11T01:21:04;3.60;;;2.40;;
63193;SDS011;49289;51.670;5.624;2022-08-11T01:23:02;4.10;;;2.40;;
63193;SDS011;49289;51.670;5.624;2022-08-11T01:27:09;5.90;;;2.90;;
63193;SDS011;49289;51.670;5.624;2022-08-11T01:40:53;2.50;;;2.30;;
63193;SDS011;49289;51.670;5.624;2022-08-11T01:43:00;3.20;;;2.40;;
63193;SDS011;49289;51.670;5.624;2022-08-11T01:45:08;3.40;;;2.80;;
63193;SDS011;49289;51.670;5.624;2022-08-11T01:47:21;4.10;;;2.60;;
63193;SDS011;49289;51.670;5.624;2022-08-11T01:49:09;5.00;;;2.80;;
63193;SDS011;49289;51.670;5.624;2022-08-11T01:51:02;3.60;;;2.50;;
63193;SDS011;49289;51.670;5.624;2022-08-11T01:52:54;3.60;;;2.40;;
63193;SDS011;49289;51.670;5.624;2022-08-11T01:54:48;4.10;;;2.30;;
63193;SDS011;49289;51.670;5.624;2022-08-11T01:56:43;4.60;;;2.60;;
63193;SDS011;49289;51.670;5.624;2022-08-11T01:58:32;3.70;;;2.30;;
63193;SDS011;49289;51.670;5.624;2022-08-11T02:00:18;4.90;;;2.80;;
63193;SDS011;49289;51.670;5.624;2022-08-11T02:02:15;3.90;;;2.40;;
63193;SDS011;49289;51.670;5.624;2022-08-11T02:04:13;6.10;;;2.80;;
63193;SDS011;49289;51.670;5.624;2022-08-11T02:06:09;6.50;;;2.40;;
63193;SDS011;49289;51.670;5.624;2022-08-11T02:07:59;3.20;;;2.60;;
63193;SDS011;49289;51.670;5.624;2022-08-11T02:09:49;2.80;;;2.50;;
63193;SDS011;49289;51.670;5.624;2022-08-11T02:11:38;3.50;;;2.70;;
63193;SDS011;49289;51.670;5.624;2022-08-11T02:13:29;3.00;;;2.70;;
63193;SDS011;49289;51.670;5.624;2022-08-11T02:15:19;3.50;;;2.60;;
63193;SDS011;49289;51.670;5.624;2022-08-11T02:17:10;4.20;;;2.70;;
63193;SDS011;49289;51.670;5.624;2022-08-11T02:19:00;5.20;;;2.50;;
63193;SDS011;49289;51.670;5.624;2022-08-11T02:20:49;4.20;;;2.80;;
63193;SDS011;49289;51.670;5.624;2022-08-11T02:22:37;3.20;;;2.50;;
63193;SDS011;49289;51.670;5.624;2022-08-11T02:24:25;4.10;;;2.60;;
63193;SDS011;49289;51.670;5.624;2022-08-11T02:26:14;4.10;;;2.90;;
63193;SDS011;49289;51.670;5.624;2022-08-11T02:28:04;3.40;;;2.90;;
63193;SDS011;49289;51.670;5.624;2022-08-11T02:29:53;2.60;;;2.30;;
63193;SDS011;49289;51.670;5.624;2022-08-11T02:31:46;3.60;;;2.70;;
63193;SDS011;49289;51.670;5.624;2022-08-11T02:33:38;3.00;;;2.70;;
63193;SDS011;49289;51.670;5.624;2022-08-11T02:35:28;3.70;;;2.70;;
63193;SDS011;49289;51.670;5.624;2022-08-11T02:37:17;5.30;;;2.60;;
63193;SDS011;49289;51.670;5.624;2022-08-11T02:39:05;3.20;;;2.70;;
63193;SDS011;49289;51.670;5.624;2022-08-11T02:40:56;3.80;;;2.80;;
63193;SDS011;49289;51.670;5.624;2022-08-11T02:42:48;4.30;;;2.60;;
63193;SDS011;49289;51.670;5.624;2022-08-11T02:44:36;6.40;;;2.90;;
63193;SDS011;49289;51.670;5.624;2022-08-11T02:46:26;2.90;;;2.60;;
63193;SDS011;49289;51.670;5.624;2022-08-11T02:48:15;4.60;;;2.90;;
63193;SDS011;49289;51.670;5.624;2022-08-11T02:50:02;3.90;;;2.60;;
63193;SDS011;49289;51.670;5.624;2022-08-11T02:51:54;5.50;;;2.90;;
63193;SDS011;49289;51.670;5.624;2022-08-11T02:53:43;4.50;;;2.80;;
63193;SDS011;49289;51.670;5.624;2022-08-11T02:55:31;4.00;;;2.70;;
63193;SDS011;49289;51.670;5.624;2022-08-11T02:57:21;2.90;;;2.70;;
63193;SDS011;49289;51.670;5.624;2022-08-11T02:59:12;3.20;;;2.90;;
63193;SDS011;49289;51.670;5.624;2022-08-11T03:00:59;3.50;;;2.60;;
63193;SDS011;49289;51.670;5.624;2022-08-11T03:02:53;4.50;;;2.80;;
63193;SDS011;49289;51.670;5.624;2022-08-11T03:05:11;3.80;;;2.90;;
63193;SDS011;49289;51.670;5.624;2022-08-11T03:06:59;6.40;;;3.10;;
63193;SDS011;49289;51.670;5.624;2022-08-11T03:08:52;3.90;;;2.90;;
63193;SDS011;49289;51.670;5.624;2022-08-11T03:10:41;5.90;;;3.00;;
63193;SDS011;49289;51.670;5.624;2022-08-11T03:12:29;3.10;;;2.80;;
63193;SDS011;49289;51.670;5.624;2022-08-11T03:14:19;6.30;;;3.10;;
63193;SDS011;49289;51.670;5.624;2022-08-11T03:16:06;3.90;;;2.80;;
63193;SDS011;49289;51.670;5.624;2022-08-11T03:17:56;3.70;;;2.70;;
63193;SDS011;49289;51.670;5.624;2022-08-11T03:19:48;4.30;;;3.20;;
63193;SDS011;49289;51.670;5.624;2022-08-11T03:21:35;3.30;;;3.00;;
63193;SDS011;49289;51.670;5.624;2022-08-11T03:23:26;5.40;;;2.90;;
63193;SDS011;49289;51.670;5.624;2022-08-11T03:25:11;3.60;;;2.90;;
63193;SDS011;49289;51.670;5.624;2022-08-11T03:27:01;7.10;;;3.00;;
63193;SDS011;49289;51.670;5.624;2022-08-11T03:28:49;4.30;;;3.10;;
63193;SDS011;49289;51.670;5.624;2022-08-11T03:30:38;5.00;;;2.90;;
63193;SDS011;49289;51.670;5.624;2022-08-11T03:32:27;4.90;;;3.10;;
63193;SDS011;49289;51.670;5.624;2022-08-11T03:34:14;4.00;;;3.00;;
63193;SDS011;49289;51.670;5.624;2022-08-11T03:36:04;4.60;;;3.30;;
63193;SDS011;49289;51.670;5.624;2022-08-11T03:37:57;3.40;;;3.10;;
63193;SDS011;49289;51.670;5.624;2022-08-11T03:39:47;4.20;;;3.00;;
63193;SDS011;49289;51.670;5.624;2022-08-11T03:41:37;4.40;;;2.90;;
63193;SDS011;49289;51.670;5.624;2022-08-11T03:43:27;3.70;;;3.10;;
63193;SDS011;49289;51.670;5.624;2022-08-11T03:45:24;4.70;;;3.10;;
63193;SDS011;49289;51.670;5.624;2022-08-11T03:47:36;5.20;;;3.10;;
63193;SDS011;49289;51.670;5.624;2022-08-11T03:49:38;8.00;;;3.20;;
63193;SDS011;49289;51.670;5.624;2022-08-11T03:51:26;4.90;;;3.10;;
63193;SDS011;49289;51.670;5.624;2022-08-11T03:53:15;3.50;;;3.00;;
63193;SDS011;49289;51.670;5.624;2022-08-11T03:55:10;5.20;;;3.10;;
63193;SDS011;49289;51.670;5.624;2022-08-11T03:59:17;3.60;;;3.30;;
63193;SDS011;49289;51.670;5.624;2022-08-11T04:03:43;6.50;;;2.90;;
63193;SDS011;49289;51.670;5.624;2022-08-11T04:06:00;4.90;;;3.40;;
63193;SDS011;49289;51.670;5.624;2022-08-11T04:14:57;4.50;;;3.40;;
63193;SDS011;49289;51.670;5.624;2022-08-11T04:16:53;5.50;;;3.60;;
63193;SDS011;49289;51.670;5.624;2022-08-11T04:23:23;5.50;;;3.50;;
63193;SDS011;49289;51.670;5.624;2022-08-11T04:25:20;6.10;;;3.60;;
63193;SDS011;49289;51.670;5.624;2022-08-11T04:29:41;4.40;;;3.50;;
63193;SDS011;49289;51.670;5.624;2022-08-11T04:31:35;3.90;;;3.50;;
63193;SDS011;49289;51.670;5.624;2022-08-11T04:35:30;5.30;;;3.90;;
63193;SDS011;49289;51.670;5.624;2022-08-11T04:37:35;7.40;;;3.90;;
63193;SDS011;49289;51.670;5.624;2022-08-11T04:39:38;5.20;;;3.60;;
63193;SDS011;49289;51.670;5.624;2022-08-11T04:41:52;6.10;;;3.70;;
63193;SDS011;49289;51.670;5.624;2022-08-11T04:43:56;7.30;;;4.10;;
63193;SDS011;49289;51.670;5.624;2022-08-11T04:48:13;4.60;;;3.40;;
63193;SDS011;49289;51.670;5.624;2022-08-11T04:50:21;4.70;;;3.90;;
63193;SDS011;49289;51.670;5.624;2022-08-11T04:52:16;5.20;;;4.00;;
63193;SDS011;49289;51.670;5.624;2022-08-11T04:54:14;4.80;;;4.00;;
63193;SDS011;49289;51.670;5.624;2022-08-11T04:56:02;5.70;;;3.70;;
63193;SDS011;49289;51.670;5.624;2022-08-11T04:57:58;6.40;;;3.60;;
63193;SDS011;49289;51.670;5.624;2022-08-11T04:59:47;5.50;;;3.80;;
63193;SDS011;49289;51.670;5.624;2022-08-11T05:01:52;5.00;;;3.70;;
63193;SDS011;49289;51.670;5.624;2022-08-11T05:03:45;4.20;;;3.80;;
63193;SDS011;49289;51.670;5.624;2022-08-11T05:05:50;4.50;;;3.80;;
63193;SDS011;49289;51.670;5.624;2022-08-11T05:07:50;6.90;;;4.00;;
63193;SDS011;49289;51.670;5.624;2022-08-11T05:09:48;5.50;;;3.60;;
63193;SDS011;49289;51.670;5.624;2022-08-11T05:11:42;6.30;;;3.80;;
63193;SDS011;49289;51.670;5.624;2022-08-11T05:13:48;5.20;;;4.30;;
63193;SDS011;49289;51.670;5.624;2022-08-11T05:15:41;4.60;;;3.60;;
63193;SDS011;49289;51.670;5.624;2022-08-11T05:17:41;8.60;;;3.90;;
63193;SDS011;49289;51.670;5.624;2022-08-11T05:19:29;5.80;;;3.70;;
63193;SDS011;49289;51.670;5.624;2022-08-11T05:21:17;5.20;;;3.50;;
63193;SDS011;49289;51.670;5.624;2022-08-11T05:23:05;5.80;;;4.10;;
63193;SDS011;49289;51.670;5.624;2022-08-11T05:24:55;4.70;;;3.80;;
63193;SDS011;49289;51.670;5.624;2022-08-11T05:26:42;6.40;;;4.00;;
63193;SDS011;49289;51.670;5.624;2022-08-11T05:28:33;6.30;;;3.70;;
63193;SDS011;49289;51.670;5.624;2022-08-11T05:30:19;6.80;;;4.20;;
63193;SDS011;49289;51.670;5.624;2022-08-11T05:32:11;10.80;;;4.20;;
63193;SDS011;49289;51.670;5.624;2022-08-11T05:33:59;9.40;;;4.50;;
63193;SDS011;49289;51.670;5.624;2022-08-11T05:35:46;5.00;;;4.50;;
63193;SDS011;49289;51.670;5.624;2022-08-11T05:37:37;9.50;;;4.30;;
63193;SDS011;49289;51.670;5.624;2022-08-11T05:39:25;7.90;;;4.40;;
63193;SDS011;49289;51.670;5.624;2022-08-11T05:41:10;10.70;;;4.30;;
63193;SDS011;49289;51.670;5.624;2022-08-11T05:43:00;7.60;;;4.60;;
63193;SDS011;49289;51.670;5.624;2022-08-11T05:44:48;7.30;;;4.70;;
63193;SDS011;49289;51.670;5.624;2022-08-11T05:46:43;5.40;;;4.30;;
63193;SDS011;49289;51.670;5.624;2022-08-11T05:48:34;7.10;;;4.70;;
63193;SDS011;49289;51.670;5.624;2022-08-11T05:50:22;6.60;;;4.40;;
63193;SDS011;49289;51.670;5.624;2022-08-11T05:52:12;7.70;;;4.70;;
63193;SDS011;49289;51.670;5.624;2022-08-11T05:54:00;6.30;;;4.60;;
63193;SDS011;49289;51.670;5.624;2022-08-11T05:55:48;8.30;;;4.60;;
63193;SDS011;49289;51.670;5.624;2022-08-11T05:57:36;9.50;;;4.70;;
63193;SDS011;49289;51.670;5.624;2022-08-11T05:59:24;4.90;;;4.20;;
63193;SDS011;49289;51.670;5.624;2022-08-11T06:01:12;6.70;;;5.10;;
63193;SDS011;49289;51.670;5.624;2022-08-11T06:02:59;8.50;;;5.20;;
63193;SDS011;49289;51.670;5.624;2022-08-11T06:04:45;10.80;;;5.40;;
63193;SDS011;49289;51.670;5.624;2022-08-11T06:06:32;6.80;;;4.90;;
63193;SDS011;49289;51.670;5.624;2022-08-11T06:08:19;5.80;;;5.10;;
63193;SDS011;49289;51.670;5.624;2022-08-11T06:10:13;7.10;;;5.10;;
63193;SDS011;49289;51.670;5.624;2022-08-11T06:12:16;10.60;;;5.50;;
63193;SDS011;49289;51.670;5.624;2022-08-11T06:14:00;9.70;;;5.50;;
63193;SDS011;49289;51.670;5.624;2022-08-11T06:15:50;10.10;;;5.50;;
63193;SDS011;49289;51.670;5.624;2022-08-11T06:17:42;9.60;;;5.50;;
63193;SDS011;49289;51.670;5.624;2022-08-11T06:19:29;7.40;;;5.50;;
63193;SDS011;49289;51.670;5.624;2022-08-11T06:21:16;7.60;;;5.80;;
63193;SDS011;49289;51.670;5.624;2022-08-11T06:23:04;6.60;;;5.80;;
63193;SDS011;49289;51.670;5.624;2022-08-11T06:24:50;7.70;;;5.50;;
63193;SDS011;49289;51.670;5.624;2022-08-11T06:26:37;8.80;;;5.90;;
63193;SDS011;49289;51.670;5.624;2022-08-11T06:28:25;9.00;;;5.50;;
63193;SDS011;49289;51.670;5.624;2022-08-11T06:30:17;7.40;;;5.30;;
63193;SDS011;49289;51.670;5.624;2022-08-11T06:32:05;7.90;;;5.20;;
63193;SDS011;49289;51.670;5.624;2022-08-11T06:33:58;10.10;;;5.30;;
63193;SDS011;49289;51.670;5.624;2022-08-11T06:35:50;7.00;;;5.20;;
63193;SDS011;49289;51.670;5.624;2022-08-11T06:37:42;6.00;;;5.40;;
63193;SDS011;49289;51.670;5.624;2022-08-11T06:39:31;9.50;;;5.30;;
63193;SDS011;49289;51.670;5.624;2022-08-11T06:41:19;7.90;;;5.20;;
63193;SDS011;49289;51.670;5.624;2022-08-11T06:43:09;6.10;;;4.80;;
63193;SDS011;49289;51.670;5.624;2022-08-11T06:45:00;7.90;;;5.00;;
63193;SDS011;49289;51.670;5.624;2022-08-11T06:46:44;7.10;;;4.70;;
63193;SDS011;49289;51.670;5.624;2022-08-11T06:48:31;7.80;;;5.10;;
63193;SDS011;49289;51.670;5.624;2022-08-11T06:50:21;8.90;;;5.00;;
63193;SDS011;49289;51.670;5.624;2022-08-11T06:52:10;8.60;;;4.70;;
63193;SDS011;49289;51.670;5.624;2022-08-11T06:53:57;7.20;;;5.00;;
63193;SDS011;49289;51.670;5.624;2022-08-11T06:55:45;8.10;;;4.80;;
63193;SDS011;49289;51.670;5.624;2022-08-11T06:57:31;7.90;;;4.70;;
63193;SDS011;49289;51.670;5.624;2022-08-11T06:59:18;7.60;;;4.60;;
63193;SDS011;49289;51.670;5.624;2022-08-11T07:01:06;9.00;;;4.20;;
63193;SDS011;49289;51.670;5.624;2022-08-11T07:02:56;6.90;;;4.60;;
63193;SDS011;49289;51.670;5.624;2022-08-11T07:04:46;6.20;;;4.50;;
63193;SDS011;49289;51.670;5.624;2022-08-11T07:06:34;7.80;;;4.50;;
63193;SDS011;49289;51.670;5.624;2022-08-11T07:10:39;7.30;;;4.50;;
63193;SDS011;49289;51.670;5.624;2022-08-11T07:12:34;8.00;;;3.80;;
63193;SDS011;49289;51.670;5.624;2022-08-11T07:14:26;5.40;;;3.70;;
63193;SDS011;49289;51.670;5.624;2022-08-11T07:16:14;6.40;;;4.30;;
63193;SDS011;49289;51.670;5.624;2022-08-11T07:18:02;7.20;;;3.60;;
63193;SDS011;49289;51.670;5.624;2022-08-11T07:19:50;4.20;;;3.60;;
63193;SDS011;49289;51.670;5.624;2022-08-11T07:21:38;10.60;;;3.70;;
63193;SDS011;49289;51.670;5.624;2022-08-11T07:23:26;5.30;;;3.80;;
63193;SDS011;49289;51.670;5.624;2022-08-11T07:25:15;5.90;;;3.70;;
63193;SDS011;49289;51.670;5.624;2022-08-11T07:27:03;4.10;;;3.30;;
63193;SDS011;49289;51.670;5.624;2022-08-11T07:28:51;4.50;;;3.70;;
63193;SDS011;49289;51.670;5.624;2022-08-11T07:30:39;7.30;;;3.50;;
63193;SDS011;49289;51.670;5.624;2022-08-11T07:32:28;6.10;;;3.50;;
63193;SDS011;49289;51.670;5.624;2022-08-11T07:34:18;7.20;;;3.60;;
63193;SDS011;49289;51.670;5.624;2022-08-11T07:36:04;5.50;;;3.30;;
63193;SDS011;49289;51.670;5.624;2022-08-11T07:37:54;6.90;;;3.20;;
63193;SDS011;49289;51.670;5.624;2022-08-11T07:39:40;8.30;;;3.50;;
63193;SDS011;49289;51.670;5.624;2022-08-11T07:41:27;6.50;;;3.30;;
63193;SDS011;49289;51.670;5.624;2022-08-11T07:43:14;8.60;;;3.30;;
63193;SDS011;49289;51.670;5.624;2022-08-11T07:45:04;5.30;;;3.60;;
63193;SDS011;49289;51.670;5.624;2022-08-11T07:46:50;7.80;;;3.50;;
63193;SDS011;49289;51.670;5.624;2022-08-11T07:48:37;5.40;;;3.10;;
63193;SDS011;49289;51.670;5.624;2022-08-11T07:50:25;5.20;;;3.20;;
63193;SDS011;49289;51.670;5.624;2022-08-11T07:52:13;5.00;;;3.40;;
63193;SDS011;49289;51.670;5.624;2022-08-11T07:54:01;7.40;;;3.10;;
63193;SDS011;49289;51.670;5.624;2022-08-11T07:55:50;7.40;;;3.30;;
63193;SDS011;49289;51.670;5.624;2022-08-11T07:57:37;7.70;;;3.30;;
63193;SDS011;49289;51.670;5.624;2022-08-11T07:59:24;6.20;;;3.20;;
63193;SDS011;49289;51.670;5.624;2022-08-11T08:01:11;4.90;;;2.80;;
63193;SDS011;49289;51.670;5.624;2022-08-11T08:02:59;4.60;;;2.90;;
63193;SDS011;49289;51.670;5.624;2022-08-11T08:04:46;5.60;;;2.80;;
63193;SDS011;49289;51.670;5.624;2022-08-11T08:06:33;7.00;;;3.30;;
63193;SDS011;49289;51.670;5.624;2022-08-11T08:08:20;6.80;;;3.10;;
63193;SDS011;49289;51.670;5.624;2022-08-11T08:10:07;7.90;;;2.80;;
63193;SDS011;49289;51.670;5.624;2022-08-11T08:11:56;3.90;;;2.90;;
63193;SDS011;49289;51.670;5.624;2022-08-11T08:13:43;6.00;;;3.00;;
63193;SDS011;49289;51.670;5.624;2022-08-11T08:15:30;8.10;;;3.30;;
63193;SDS011;49289;51.670;5.624;2022-08-11T08:17:18;7.20;;;3.20;;
63193;SDS011;49289;51.670;5.624;2022-08-11T08:19:07;6.50;;;3.10;;
63193;SDS011;49289;51.670;5.624;2022-08-11T08:20:55;4.10;;;2.80;;
63193;SDS011;49289;51.670;5.624;2022-08-11T08:22:42;6.10;;;3.00;;
63193;SDS011;49289;51.670;5.624;2022-08-11T08:24:29;9.80;;;3.20;;
63193;SDS011;49289;51.670;5.624;2022-08-11T08:26:17;3.80;;;2.90;;
63193;SDS011;49289;51.670;5.624;2022-08-11T08:28:06;5.90;;;3.00;;
63193;SDS011;49289;51.670;5.624;2022-08-11T08:29:53;6.50;;;3.00;;
63193;SDS011;49289;51.670;5.624;2022-08-11T08:31:40;6.50;;;3.30;;
63193;SDS011;49289;51.670;5.624;2022-08-11T08:33:28;4.40;;;3.10;;
63193;SDS011;49289;51.670;5.624;2022-08-11T08:35:14;8.50;;;3.30;;
63193;SDS011;49289;51.670;5.624;2022-08-11T08:37:02;4.60;;;3.20;;
63193;SDS011;49289;51.670;5.624;2022-08-11T08:38:52;3.60;;;2.90;;
63193;SDS011;49289;51.670;5.624;2022-08-11T08:40:41;4.30;;;3.00;;
63193;SDS011;49289;51.670;5.624;2022-08-11T08:42:28;3.70;;;2.80;;
63193;SDS011;49289;51.670;5.624;2022-08-11T08:44:14;4.30;;;3.00;;
63193;SDS011;49289;51.670;5.624;2022-08-11T08:46:01;5.10;;;3.00;;
63193;SDS011;49289;51.670;5.624;2022-08-11T08:47:50;6.40;;;3.30;;
63193;SDS011;49289;51.670;5.624;2022-08-11T08:49:37;6.70;;;3.00;;
63193;SDS011;49289;51.670;5.624;2022-08-11T08:51:23;5.50;;;3.30;;
63193;SDS011;49289;51.670;5.624;2022-08-11T08:53:10;8.10;;;3.20;;
63193;SDS011;49289;51.670;5.624;2022-08-11T08:55:00;4.60;;;3.00;;
63193;SDS011;49289;51.670;5.624;2022-08-11T08:56:47;8.50;;;3.40;;
63193;SDS011;49289;51.670;5.624;2022-08-11T08:58:35;4.40;;;3.30;;
63193;SDS011;49289;51.670;5.624;2022-08-11T09:00:22;4.70;;;2.90;;
63193;SDS011;49289;51.670;5.624;2022-08-11T09:02:09;4.50;;;2.90;;
63193;SDS011;49289;51.670;5.624;2022-08-11T09:03:57;5.80;;;2.80;;
63193;SDS011;49289;51.670;5.624;2022-08-11T09:05:46;7.10;;;3.10;;
63193;SDS011;49289;51.670;5.624;2022-08-11T09:07:34;8.10;;;3.10;;
63193;SDS011;49289;51.670;5.624;2022-08-11T09:09:21;6.70;;;3.20;;
63193;SDS011;49289;51.670;5.624;2022-08-11T09:11:10;5.60;;;3.00;;
63193;SDS011;49289;51.670;5.624;2022-08-11T09:12:58;12.70;;;2.90;;
63193;SDS011;49289;51.670;5.624;2022-08-11T09:14:46;4.10;;;2.80;;
63193;SDS011;49289;51.670;5.624;2022-08-11T09:16:34;8.60;;;3.00;;
63193;SDS011;49289;51.670;5.624;2022-08-11T09:18:21;6.40;;;3.10;;
63193;SDS011;49289;51.670;5.624;2022-08-11T09:20:11;3.70;;;3.00;;
63193;SDS011;49289;51.670;5.624;2022-08-11T09:21:45;6.20;;;3.10;;
63193;SDS011;49289;51.670;5.624;2022-08-11T09:23:33;5.70;;;2.90;;
63193;SDS011;49289;51.670;5.624;2022-08-11T09:25:21;4.30;;;2.90;;
63193;SDS011;49289;51.670;5.624;2022-08-11T09:27:10;6.40;;;2.70;;
63193;SDS011;49289;51.670;5.624;2022-08-11T09:28:58;3.40;;;2.60;;
63193;SDS011;49289;51.670;5.624;2022-08-11T09:30:46;4.30;;;2.90;;
63193;SDS011;49289;51.670;5.624;2022-08-11T09:32:33;4.00;;;2.70;;
63193;SDS011;49289;51.670;5.624;2022-08-11T09:34:20;5.80;;;3.10;;
63193;SDS011;49289;51.670;5.624;2022-08-11T09:36:07;7.50;;;3.10;;
63193;SDS011;49289;51.670;5.624;2022-08-11T09:37:56;3.80;;;3.10;;
63193;SDS011;49289;51.670;5.624;2022-08-11T09:39:43;3.60;;;2.90;;
63193;SDS011;49289;51.670;5.624;2022-08-11T09:41:31;6.30;;;2.90;;
63193;SDS011;49289;51.670;5.624;2022-08-11T09:43:20;4.60;;;2.80;;
63193;SDS011;49289;51.670;5.624;2022-08-11T09:45:08;4.40;;;2.80;;
63193;SDS011;49289;51.670;5.624;2022-08-11T09:46:55;6.90;;;3.00;;
63193;SDS011;49289;51.670;5.624;2022-08-11T09:48:44;4.40;;;3.00;;
63193;SDS011;49289;51.670;5.624;2022-08-11T09:50:31;7.90;;;2.90;;
63193;SDS011;49289;51.670;5.624;2022-08-11T09:52:19;3.30;;;2.90;;
63193;SDS011;49289;51.670;5.624;2022-08-11T09:54:08;4.60;;;2.90;;
63193;SDS011;49289;51.670;5.624;2022-08-11T09:55:55;5.30;;;2.90;;
63193;SDS011;49289;51.670;5.624;2022-08-11T09:57:44;9.30;;;2.70;;
63193;SDS011;49289;51.670;5.624;2022-08-11T09:59:30;5.20;;;2.80;;
63193;SDS011;49289;51.670;5.624;2022-08-11T10:01:19;4.40;;;3.10;;
63193;SDS011;49289;51.670;5.624;2022-08-11T10:03:07;4.30;;;3.10;;
63193;SDS011;49289;51.670;5.624;2022-08-11T10:04:54;5.50;;;3.00;;
63193;SDS011;49289;51.670;5.624;2022-08-11T10:06:42;5.60;;;2.90;;
63193;SDS011;49289;51.670;5.624;2022-08-11T10:08:31;5.70;;;2.90;;
63193;SDS011;49289;51.670;5.624;2022-08-11T10:10:18;6.40;;;2.70;;
63193;SDS011;49289;51.670;5.624;2022-08-11T10:12:05;6.80;;;3.00;;
63193;SDS011;49289;51.670;5.624;2022-08-11T10:13:53;6.40;;;3.10;;
63193;SDS011;49289;51.670;5.624;2022-08-11T10:15:40;3.10;;;2.80;;
63193;SDS011;49289;51.670;5.624;2022-08-11T10:17:27;7.80;;;3.10;;
63193;SDS011;49289;51.670;5.624;2022-08-11T10:19:15;3.50;;;3.00;;
63193;SDS011;49289;51.670;5.624;2022-08-11T10:21:04;8.20;;;2.70;;
63193;SDS011;49289;51.670;5.624;2022-08-11T10:22:50;4.00;;;2.80;;
63193;SDS011;49289;51.670;5.624;2022-08-11T10:24:37;3.30;;;2.70;;
63193;SDS011;49289;51.670;5.624;2022-08-11T10:26:26;3.40;;;2.70;;
63193;SDS011;49289;51.670;5.624;2022-08-11T10:28:12;5.40;;;3.50;;
63193;SDS011;49289;51.670;5.624;2022-08-11T10:29:59;7.60;;;2.80;;
63193;SDS011;49289;51.670;5.624;2022-08-11T10:31:46;6.00;;;2.70;;
63193;SDS011;49289;51.670;5.624;2022-08-11T10:33:33;7.10;;;3.10;;
63193;SDS011;49289;51.670;5.624;2022-08-11T10:35:20;3.10;;;2.80;;
63193;SDS011;49289;51.670;5.624;2022-08-11T10:37:07;2.60;;;2.40;;
63193;SDS011;49289;51.670;5.624;2022-08-11T10:38:54;4.10;;;2.70;;
63193;SDS011;49289;51.670;5.624;2022-08-11T10:40:44;7.60;;;2.70;;
63193;SDS011;49289;51.670;5.624;2022-08-11T10:42:30;7.60;;;2.80;;
63193;SDS011;49289;51.670;5.624;2022-08-11T10:44:18;4.40;;;2.60;;
63193;SDS011;49289;51.670;5.624;2022-08-11T10:46:07;3.70;;;2.80;;
63193;SDS011;49289;51.670;5.624;2022-08-11T10:47:55;7.40;;;2.40;;
63193;SDS011;49289;51.670;5.624;2022-08-11T10:49:43;2.90;;;2.60;;
63193;SDS011;49289;51.670;5.624;2022-08-11T10:51:30;5.90;;;2.70;;
63193;SDS011;49289;51.670;5.624;2022-08-11T10:53:17;8.20;;;2.90;;
63193;SDS011;49289;51.670;5.624;2022-08-11T10:55:04;2.80;;;2.50;;
63193;SDS011;49289;51.670;5.624;2022-08-11T10:56:52;7.40;;;2.90;;
63193;SDS011;49289;51.670;5.624;2022-08-11T10:58:41;4.50;;;2.70;;
63193;SDS011;49289;51.670;5.624;2022-08-11T11:00:28;3.30;;;2.80;;
63193;SDS011;49289;51.670;5.624;2022-08-11T11:02:16;3.30;;;2.80;;
63193;SDS011;49289;51.670;5.624;2022-08-11T11:04:04;3.00;;;2.70;;
63193;SDS011;49289;51.670;5.624;2022-08-11T11:05:51;4.90;;;2.80;;
63193;SDS011;49289;51.670;5.624;2022-08-11T11:07:53;11.80;;;2.80;;
63193;SDS011;49289;51.670;5.624;2022-08-11T11:09:31;3.20;;;2.60;;
63193;SDS011;49289;51.670;5.624;2022-08-11T11:11:19;3.60;;;2.60;;
63193;SDS011;49289;51.670;5.624;2022-08-11T11:13:06;4.70;;;2.60;;
63193;SDS011;49289;51.670;5.624;2022-08-11T11:14:53;6.20;;;2.60;;
63193;SDS011;49289;51.670;5.624;2022-08-11T11:16:40;4.20;;;2.70;;
63193;SDS011;49289;51.670;5.624;2022-08-11T11:18:28;4.70;;;2.70;;
63193;SDS011;49289;51.670;5.624;2022-08-11T11:20:15;5.60;;;2.70;;
63193;SDS011;49289;51.670;5.624;2022-08-11T11:22:03;5.50;;;2.60;;
63193;SDS011;49289;51.670;5.624;2022-08-11T11:23:52;4.40;;;2.50;;
63193;SDS011;49289;51.670;5.624;2022-08-11T11:25:43;3.00;;;2.80;;
63193;SDS011;49289;51.670;5.624;2022-08-11T11:27:31;6.40;;;2.70;;
63193;SDS011;49289;51.670;5.624;2022-08-11T11:29:26;6.20;;;2.50;;
63193;SDS011;49289;51.670;5.624;2022-08-11T11:31:39;5.70;;;3.00;;
63193;SDS011;49289;51.670;5.624;2022-08-11T11:33:32;4.80;;;2.40;;
63193;SDS011;49289;51.670;5.624;2022-08-11T11:35:29;6.20;;;2.40;;
63193;SDS011;49289;51.670;5.624;2022-08-11T11:37:22;3.20;;;2.60;;
63193;SDS011;49289;51.670;5.624;2022-08-11T11:39:10;3.70;;;2.60;;
63193;SDS011;49289;51.670;5.624;2022-08-11T11:40:57;3.00;;;2.40;;
63193;SDS011;49289;51.670;5.624;2022-08-11T11:42:44;3.40;;;2.50;;
63193;SDS011;49289;51.670;5.624;2022-08-11T11:44:31;6.00;;;2.60;;
63193;SDS011;49289;51.670;5.624;2022-08-11T11:46:19;2.80;;;2.60;;
63193;SDS011;49289;51.670;5.624;2022-08-11T11:48:08;5.60;;;2.80;;
63193;SDS011;49289;51.670;5.624;2022-08-11T11:49:55;7.40;;;2.70;;